Terminal Aerodrome Forecast
Issued by NWS Sterling, VA

Current Version | Previous Version | Text Only | Print | Product List | Glossary Off
Versions: 1 2 3 4 5 6 7 8 9 10 11 12 13 14 15 16 17 18 19 20 21 22 23

755
FTUS41 KLWX 250524
TAFDCA
TAF
KDCA 250524Z 2506/2606 07013G22KT 3SM RA OVC008
     FM251300 14007KT P6SM SCT003 OVC008
     FM251600 19008KT P6SM BKN008
     FM251800 20009KT 5SM -SHRA SCT008 OVC045
     FM252300 22010KT P6SM -SHRA BKN020
     FM260100 23008KT P6SM BKN035=

USA.gov is the U.S. government's official web portal to all federal, state and local government web resources and services.